Time;durP1;ratioP1;P1;durP2;ratioP2;P2;SDS_P1;SDS_P2;PMS_P1;PMS_P2;Temp;Humidity;BMP_temperature;BMP_pressure;BME280_temperature;BME280_humidity;BME280_pressure;Samples;Min_cycle;Max_cycle;Signal;HPM_P1;HPM_P2
2023/04/02 00:00:18;;;;;;;1.77;1.67;;;;;;;;;;5096857;28;20223;-78
2023/04/02 00:02:46;;;;;;;1.97;1.87;;;;;;;;;;5097141;28;20203;-78
2023/04/02 00:05:33;;;;;;;1.93;1.83;;;;;;;;;;5111431;28;20215;-78
2023/04/02 00:08:01;;;;;;;1.70;1.60;;;;;;;;;;5091721;28;20216;-78
2023/04/02 00:10:33;;;;;;;1.80;1.70;;;;;;;;;;5091703;28;20205;-78
2023/04/02 00:13:02;;;;;;;3.10;1.73;;;;;;;;;;5091572;28;20204;-78
2023/04/02 00:15:30;;;;;;;1.70;1.60;;;;;;;;;;5105504;28;20203;-78
2023/04/02 00:17:56;;;;;;;1.80;1.70;;;;;;;;;;5111780;28;20199;-78
2023/04/02 00:20:24;;;;;;;2.50;2.30;;;;;;;;;;5110558;28;20231;-78
2023/04/02 00:22:51;;;;;;;2.87;2.00;;;;;;;;;;5099342;28;20203;-77
2023/04/02 00:25:17;;;;;;;2.83;1.93;;;;;;;;;;5109931;28;20204;-78
2023/04/02 00:27:46;;;;;;;2.00;1.83;;;;;;;;;;5091109;28;20203;-78
2023/04/02 00:30:13;;;;;;;2.20;2.10;;;;;;;;;;5090913;28;20671;-78
2023/04/02 00:32:40;;;;;;;2.33;2.13;;;;;;;;;;5090919;28;20208;-78
2023/04/02 00:35:12;;;;;;;3.07;2.43;;;;;;;;;;5092951;28;20693;-78
2023/04/02 00:37:41;;;;;;;3.53;2.20;;;;;;;;;;5111206;28;20199;-78
2023/04/02 00:40:16;;;;;;;2.43;2.03;;;;;;;;;;5110989;28;20227;-78
2023/04/02 00:42:43;;;;;;;2.33;2.13;;;;;;;;;;5110988;28;20252;-77
2023/04/02 00:45:20;;;;;;;2.60;2.17;;;;;;;;;;5093064;28;20196;-78
2023/04/02 00:47:47;;;;;;;2.30;2.10;;;;;;;;;;5091031;28;20277;-77
2023/04/02 00:50:22;;;;;;;2.90;2.40;;;;;;;;;;5097144;28;20207;-78
2023/04/02 00:52:51;;;;;;;3.27;2.70;;;;;;;;;;5096898;28;20200;-78
2023/04/02 00:55:22;;;;;;;2.20;2.00;;;;;;;;;;5090672;28;20208;-78
2023/04/02 00:57:50;;;;;;;1.80;1.70;;;;;;;;;;5090942;28;20207;-78
2023/04/02 01:00:23;;;;;;;2.00;1.90;;;;;;;;;;5090989;28;20733;-78
2023/04/02 01:03:22;;;;;;;1.67;1.57;;;;;;;;;;5090461;28;20707;-78
2023/04/02 01:05:50;;;;;;;2.13;2.03;;;;;;;;;;5105328;28;20203;-78
2023/04/02 01:08:22;;;;;;;1.80;1.70;;;;;;;;;;5105854;28;20235;-78
2023/04/02 01:10:58;;;;;;;2.17;1.97;;;;;;;;;;5108083;28;20195;-77
2023/04/02 01:13:30;;;;;;;4.30;1.93;;;;;;;;;;5105523;28;20217;-77
2023/04/02 01:16:03;;;;;;;2.10;2.00;;;;;;;;;;5114542;28;20761;-78
2023/04/02 01:18:49;;;;;;;2.13;1.93;;;;;;;;;;5103170;28;20262;-78
2023/04/02 01:21:33;;;;;;;2.33;1.93;;;;;;;;;;5094205;28;20235;-78
2023/04/02 01:24:04;;;;;;;1.80;1.70;;;;;;;;;;5108340;28;20694;-78
2023/04/02 01:26:46;;;;;;;1.97;1.70;;;;;;;;;;5094705;28;20296;-78
2023/04/02 01:29:15;;;;;;;2.27;2.17;;;;;;;;;;5100969;28;20207;-78
2023/04/02 01:31:44;;;;;;;2.00;1.90;;;;;;;;;;5114317;28;20195;-81
2023/04/02 01:34:14;;;;;;;2.60;2.40;;;;;;;;;;5115093;28;20207;-78
2023/04/02 01:36:46;;;;;;;2.60;2.40;;;;;;;;;;5114301;28;20203;-78
2023/04/02 01:39:23;;;;;;;2.50;2.30;;;;;;;;;;5106435;28;20279;-78
2023/04/02 01:41:56;;;;;;;2.23;1.90;;;;;;;;;;5107594;28;20223;-77
2023/04/02 01:44:27;;;;;;;2.20;2.10;;;;;;;;;;5094001;28;20287;-78
2023/04/02 01:46:57;;;;;;;2.50;2.30;;;;;;;;;;5107917;28;20207;-78
2023/04/02 01:49:24;;;;;;;1.93;1.83;;;;;;;;;;5094402;28;20200;-78
2023/04/02 01:51:55;;;;;;;1.80;1.70;;;;;;;;;;5093701;28;20257;-78
2023/04/02 01:54:22;;;;;;;2.43;2.23;;;;;;;;;;5094330;28;20216;-79
2023/04/02 01:56:50;;;;;;;2.23;2.07;;;;;;;;;;5094135;28;20640;-78
2023/04/02 01:59:18;;;;;;;2.70;2.50;;;;;;;;;;5093373;28;20691;-78
2023/04/02 02:01:50;;;;;;;1.80;1.70;;;;;;;;;;5102094;28;20305;-78
2023/04/02 02:04:17;;;;;;;1.67;1.57;;;;;;;;;;5100446;28;20203;-78
2023/04/02 02:06:45;;;;;;;2.63;2.33;;;;;;;;;;5105147;28;20583;-78
2023/04/02 02:09:17;;;;;;;4.70;4.03;;;;;;;;;;5107571;28;20258;-78
2023/04/02 02:11:43;;;;;;;5.23;4.23;;;;;;;;;;5093230;28;20200;-78
2023/04/02 02:14:15;;;;;;;2.40;2.20;;;;;;;;;;5093828;28;20204;-78
2023/04/02 02:16:42;;;;;;;2.43;2.23;;;;;;;;;;5093745;28;20210;-78
2023/04/02 02:19:20;;;;;;;1.73;1.63;;;;;;;;;;5093388;28;20207;-78
2023/04/02 02:21:49;;;;;;;2.07;1.97;;;;;;;;;;5106159;28;20299;-78
2023/04/02 02:24:20;;;;;;;2.30;2.10;;;;;;;;;;5113939;28;20282;-78
2023/04/02 02:26:48;;;;;;;2.17;1.80;;;;;;;;;;5113304;28;20278;-78
2023/04/02 02:29:18;;;;;;;1.80;1.70;;;;;;;;;;5100692;28;20674;-78
2023/04/02 02:31:46;;;;;;;1.70;1.60;;;;;;;;;;5099540;28;20648;-77
2023/04/02 02:34:18;;;;;;;1.57;1.47;;;;;;;;;;5113726;28;20671;-78
2023/04/02 02:36:49;;;;;;;1.57;1.47;;;;;;;;;;5097234;28;20610;-78
2023/04/02 02:39:18;;;;;;;1.53;1.43;;;;;;;;;;5103179;28;20631;-78
2023/04/02 02:41:48;;;;;;;1.60;1.50;;;;;;;;;;5110170;28;20257;-78
2023/04/02 02:44:18;;;;;;;1.50;1.50;;;;;;;;;;5104005;28;20618;-78
2023/04/02 02:46:47;;;;;;;1.67;1.40;;;;;;;;;;5094707;28;20207;-79
2023/04/02 02:49:18;;;;;;;1.87;1.77;;;;;;;;;;5092981;28;20675;-78
2023/04/02 02:51:47;;;;;;;1.60;1.50;;;;;;;;;;5111789;28;20281;-78
2023/04/02 02:54:15;;;;;;;1.63;1.53;;;;;;;;;;5100856;28;20201;-78
2023/04/02 02:56:46;;;;;;;3.27;1.93;;;;;;;;;;5112218;28;20196;-78
2023/04/02 02:59:15;;;;;;;1.97;1.87;;;;;;;;;;5099394;28;20204;-78
2023/04/02 03:01:43;;;;;;;2.83;1.93;;;;;;;;;;5099899;28;20219;-78
2023/04/02 03:04:10;;;;;;;1.80;1.70;;;;;;;;;;5098643;28;20208;-78
2023/04/02 03:06:39;;;;;;;2.17;1.80;;;;;;;;;;5092279;28;20696;-78
2023/04/02 03:09:14;;;;;;;1.93;1.80;;;;;;;;;;5092294;28;20248;-78
2023/04/02 03:11:47;;;;;;;1.83;1.73;;;;;;;;;;5092297;28;20230;-78
2023/04/02 03:14:20;;;;;;;2.20;2.00;;;;;;;;;;5092839;28;20193;-78
2023/04/02 03:16:49;;;;;;;2.07;1.97;;;;;;;;;;5092314;28;20200;-78
2023/04/02 03:19:25;;;;;;;1.53;1.43;;;;;;;;;;5092466;28;20208;-78
2023/04/02 03:21:56;;;;;;;2.10;1.90;;;;;;;;;;5091962;28;20586;-78
2023/04/02 03:24:29;;;;;;;1.47;1.37;;;;;;;;;;5112695;28;20203;-78
2023/04/02 03:26:59;;;;;;;1.93;1.83;;;;;;;;;;5112071;28;20275;-78
2023/04/02 03:29:27;;;;;;;2.37;2.17;;;;;;;;;;5112036;28;20199;-78
2023/04/02 03:31:56;;;;;;;2.47;2.27;;;;;;;;;;5098393;28;20215;-78
2023/04/02 03:34:27;;;;;;;1.70;1.60;;;;;;;;;;5102747;28;20208;-78
2023/04/02 03:36:58;;;;;;;1.70;1.60;;;;;;;;;;5092123;28;20273;-78
2023/04/02 03:39:31;;;;;;;1.57;1.40;;;;;;;;;;5102813;28;20751;-78
2023/04/02 03:42:02;;;;;;;1.53;1.43;;;;;;;;;;5111863;28;20287;-78
2023/04/02 03:44:31;;;;;;;1.83;1.73;;;;;;;;;;5099986;28;20208;-78
2023/04/02 03:47:01;;;;;;;1.80;1.70;;;;;;;;;;5111672;28;20199;-78
2023/04/02 03:49:32;;;;;;;1.70;1.60;;;;;;;;;;5111748;28;20200;-78
2023/04/02 03:52:03;;;;;;;1.63;1.53;;;;;;;;;;5091545;28;20207;-78
2023/04/02 03:54:31;;;;;;;1.70;1.60;;;;;;;;;;5105590;28;20199;-77
2023/04/02 03:56:58;;;;;;;1.87;1.77;;;;;;;;;;5090714;28;20228;-77
2023/04/02 03:59:35;;;;;;;1.77;1.67;;;;;;;;;;5092846;28;20200;-78
2023/04/02 04:02:10;;;;;;;1.70;1.60;;;;;;;;;;5101554;28;20712;-78
2023/04/02 04:04:40;;;;;;;2.20;2.00;;;;;;;;;;5091963;28;20200;-78
2023/04/02 04:07:10;;;;;;;2.00;1.90;;;;;;;;;;5091160;28;20204;-77
2023/04/02 04:09:38;;;;;;;1.90;1.80;;;;;;;;;;5091683;28;20669;-78
2023/04/02 04:12:10;;;;;;;2.13;2.03;;;;;;;;;;5103867;28;20199;-78
2023/04/02 04:14:40;;;;;;;4.17;2.80;;;;;;;;;;5098098;28;20200;-78
2023/04/02 04:17:14;;;;;;;2.33;2.13;;;;;;;;;;5097779;28;20212;-77
2023/04/02 04:19:44;;;;;;;5.33;4.10;;;;;;;;;;5102962;28;20196;-78
2023/04/02 04:22:16;;;;;;;99.90;53.50;;;;;;;;;;5091225;28;20223;-79
2023/04/02 04:24:44;;;;;;;71.73;40.63;;;;;;;;;;5100775;28;20248;-81
2023/04/02 04:27:17;;;;;;;48.00;32.93;;;;;;;;;;5111906;28;20240;-80
2023/04/02 04:29:48;;;;;;;30.80;22.50;;;;;;;;;;5100746;28;20215;-77
2023/04/02 04:32:25;;;;;;;15.90;13.00;;;;;;;;;;5090764;28;20201;-78
2023/04/02 04:34:56;;;;;;;10.07;7.10;;;;;;;;;;5091407;28;20206;-78
2023/04/02 04:37:27;;;;;;;4.20;3.73;;;;;;;;;;5090520;28;20670;-78
2023/04/02 04:39:57;;;;;;;3.43;3.13;;;;;;;;;;5106018;28;20207;-78
2023/04/02 04:42:25;;;;;;;7.33;5.90;;;;;;;;;;5110123;28;20284;-78
2023/04/02 04:44:57;;;;;;;8.37;5.70;;;;;;;;;;5108848;28;20220;-77
2023/04/02 04:47:26;;;;;;;6.37;5.67;;;;;;;;;;5100547;28;20252;-77
2023/04/02 04:49:57;;;;;;;7.63;6.10;;;;;;;;;;5107551;28;20227;-78
2023/04/02 04:52:26;;;;;;;8.13;7.03;;;;;;;;;;5091065;28;20200;-79
2023/04/02 04:54:53;;;;;;;8.90;6.47;;;;;;;;;;5090485;28;20200;-79
2023/04/02 04:57:27;;;;;;;6.20;5.30;;;;;;;;;;5101190;28;20674;-79
2023/04/02 04:59:59;;;;;;;5.33;4.60;;;;;;;;;;5097462;28;20205;-79
2023/04/02 05:02:30;;;;;;;35.33;18.00;;;;;;;;;;5097917;28;20252;-79
2023/04/02 05:04:56;;;;;;;12.47;7.77;;;;;;;;;;5104590;28;20196;-79
2023/04/02 05:07:28;;;;;;;3.53;3.23;;;;;;;;;;5090823;28;20208;-80
2023/04/02 05:09:58;;;;;;;2.83;2.63;;;;;;;;;;5098454;28;20238;-79
2023/04/02 05:12:31;;;;;;;5.53;4.37;;;;;;;;;;5108728;28;20196;-79
2023/04/02 05:15:02;;;;;;;7.37;5.33;;;;;;;;;;5100332;28;20714;-79
2023/04/02 05:17:32;;;;;;;10.80;7.10;;;;;;;;;;5093381;28;20644;-79
2023/04/02 05:20:00;;;;;;;4.07;3.67;;;;;;;;;;5090577;28;20311;-80
2023/04/02 05:22:35;;;;;;;3.90;3.50;;;;;;;;;;5103223;28;20729;-79
2023/04/02 05:25:12;;;;;;;3.83;3.43;;;;;;;;;;5103398;28;20590;-79
2023/04/02 05:27:43;;;;;;;4.00;3.20;;;;;;;;;;5097916;28;20196;-78
2023/04/02 05:30:28;;;;;;;5.80;4.57;;;;;;;;;;5095874;28;20254;-79
2023/04/02 05:32:58;;;;;;;4.20;3.87;;;;;;;;;;5102245;28;20199;-79
2023/04/02 05:35:33;;;;;;;6.53;5.93;;;;;;;;;;5092802;28;20204;-79
2023/04/02 05:38:02;;;;;;;14.63;12.63;;;;;;;;;;5090445;28;20678;-79
2023/04/02 05:40:32;;;;;;;17.30;15.40;;;;;;;;;;5096762;28;20650;-79
2023/04/02 05:43:00;;;;;;;8.67;7.27;;;;;;;;;;5096432;28;20224;-79
2023/04/02 05:45:32;;;;;;;6.37;5.80;;;;;;;;;;5090354;28;20666;-79
2023/04/02 05:48:00;;;;;;;6.33;4.07;;;;;;;;;;5091837;28;20200;-79
2023/04/02 05:50:29;;;;;;;4.03;3.07;;;;;;;;;;5101178;28;20295;-80
2023/04/02 05:52:59;;;;;;;3.57;3.27;;;;;;;;;;5103597;28;20199;-79
2023/04/02 05:55:43;;;;;;;3.90;3.60;;;;;;;;;;5093275;28;20201;-79
2023/04/02 05:58:17;;;;;;;6.97;5.80;;;;;;;;;;5098500;28;20207;-80
2023/04/02 06:00:52;;;;;;;5.70;5.03;;;;;;;;;;5113242;28;20257;-80
2023/04/02 06:03:26;;;;;;;3.20;2.90;;;;;;;;;;5105324;28;20219;-80
2023/04/02 06:05:53;;;;;;;10.00;7.30;;;;;;;;;;5093452;28;20669;-79
2023/04/02 06:08:22;;;;;;;7.30;4.30;;;;;;;;;;5103808;28;20230;-79
2023/04/02 06:10:54;;;;;;;4.97;4.23;;;;;;;;;;5097080;28;20207;-80
2023/04/02 06:13:21;;;;;;;2.73;2.53;;;;;;;;;;5103707;28;20233;-79
2023/04/02 06:15:47;;;;;;;2.97;2.43;;;;;;;;;;5097457;28;20200;-79
2023/04/02 06:18:16;;;;;;;2.53;2.30;;;;;;;;;;5103931;28;20705;-79
2023/04/02 06:20:43;;;;;;;3.53;3.13;;;;;;;;;;5113428;28;20679;-80
2023/04/02 06:23:14;;;;;;;2.33;2.00;;;;;;;;;;5103122;28;20277;-79
2023/04/02 06:25:45;;;;;;;2.87;2.57;;;;;;;;;;5106843;28;20208;-79
2023/04/02 06:28:16;;;;;;;3.03;2.77;;;;;;;;;;5093961;28;20214;-79
2023/04/02 06:30:43;;;;;;;2.60;2.40;;;;;;;;;;5093039;28;20678;-79
2023/04/02 06:33:11;;;;;;;4.77;3.93;;;;;;;;;;5093696;28;20212;-79
2023/04/02 06:35:41;;;;;;;2.73;2.53;;;;;;;;;;5112914;28;20717;-79
2023/04/02 06:38:15;;;;;;;3.00;2.20;;;;;;;;;;5113633;28;20256;-79
2023/04/02 06:40:45;;;;;;;1.60;1.40;;;;;;;;;;5105454;28;20306;-78
2023/04/02 06:43:18;;;;;;;2.43;2.17;;;;;;;;;;5093128;28;20307;-79
2023/04/02 06:45:46;;;;;;;1.87;1.77;;;;;;;;;;5102497;28;20203;-78
2023/04/02 06:48:16;;;;;;;1.60;1.50;;;;;;;;;;5113118;28;20203;-78
2023/04/02 06:50:46;;;;;;;4.50;1.50;;;;;;;;;;5102749;28;20665;-78
2023/04/02 06:53:20;;;;;;;1.83;1.53;;;;;;;;;;5106779;28;20200;-78
2023/04/02 06:55:49;;;;;;;2.17;1.97;;;;;;;;;;5104866;28;20206;-78
2023/04/02 06:58:19;;;;;;;1.70;1.60;;;;;;;;;;5093715;28;20196;-78
2023/04/02 07:00:46;;;;;;;1.03;1.03;;;;;;;;;;5105645;28;20257;-78
2023/04/02 07:03:16;;;;;;;0.83;0.83;;;;;;;;;;5106110;28;20224;-78
2023/04/02 07:05:43;;;;;;;0.97;0.97;;;;;;;;;;5091629;28;20273;-79
2023/04/02 07:08:10;;;;;;;1.20;1.10;;;;;;;;;;5112852;28;20694;-79
2023/04/02 07:10:36;;;;;;;1.07;1.07;;;;;;;;;;5099082;28;20619;-78
2023/04/02 07:13:04;;;;;;;1.10;1.00;;;;;;;;;;5112185;28;20590;-79
2023/04/02 07:15:32;;;;;;;2.00;1.40;;;;;;;;;;5097871;28;20197;-79
2023/04/02 07:17:59;;;;;;;2.73;2.37;;;;;;;;;;5092445;28;20211;-78
2023/04/02 07:20:28;;;;;;;1.90;1.30;;;;;;;;;;5093649;28;20196;-78
2023/04/02 07:22:56;;;;;;;1.40;1.30;;;;;;;;;;5103386;28;20737;-79
2023/04/02 07:25:23;;;;;;;1.20;1.13;;;;;;;;;;5106049;28;20252;-79
2023/04/02 07:27:51;;;;;;;1.30;1.20;;;;;;;;;;5101150;28;20640;-78
2023/04/02 07:30:20;;;;;;;1.07;0.90;;;;;;;;;;5109760;28;20200;-78
2023/04/02 07:32:49;;;;;;;4.67;1.20;;;;;;;;;;5091774;28;20201;-78
2023/04/02 07:35:16;;;;;;;2.10;0.90;;;;;;;;;;5091959;28;20232;-78
2023/04/02 07:37:44;;;;;;;1.47;1.37;;;;;;;;;;5091919;28;20204;-78
2023/04/02 07:40:19;;;;;;;3.17;1.80;;;;;;;;;;5095991;28;20213;-78
2023/04/02 07:42:46;;;;;;;2.17;1.23;;;;;;;;;;5100106;28;20227;-78
2023/04/02 07:45:13;;;;;;;1.30;1.20;;;;;;;;;;5096927;28;20196;-78
2023/04/02 07:47:40;;;;;;;0.93;0.93;;;;;;;;;;5111947;28;20206;-78
2023/04/02 07:50:10;;;;;;;0.90;0.90;;;;;;;;;;5112238;28;20206;-78
2023/04/02 07:52:40;;;;;;;1.40;1.20;;;;;;;;;;5111807;28;20215;-78
2023/04/02 07:55:08;;;;;;;0.70;0.70;;;;;;;;;;5091577;28;20259;-78
2023/04/02 07:57:40;;;;;;;0.70;0.70;;;;;;;;;;5104771;28;20290;-78
2023/04/02 08:00:10;;;;;;;2.23;1.10;;;;;;;;;;5091628;28;20218;-78
2023/04/02 08:02:37;;;;;;;1.37;0.90;;;;;;;;;;5107347;28;20223;-78
2023/04/02 08:05:04;;;;;;;10.13;4.43;;;;;;;;;;5111737;28;20221;-78
2023/04/02 08:07:32;;;;;;;11.57;7.23;;;;;;;;;;5094861;28;20606;-78
2023/04/02 08:09:59;;;;;;;1.93;1.30;;;;;;;;;;5091769;28;20243;-84
2023/04/02 08:12:26;;;;;;;4.07;2.33;;;;;;;;;;5106946;28;20207;-86
2023/04/02 08:14:53;;;;;;;6.27;3.63;;;;;;;;;;5101384;28;20207;-84
2023/04/02 08:17:20;;;;;;;1.70;1.60;;;;;;;;;;5110996;28;20682;-79
2023/04/02 08:19:46;;;;;;;1.23;1.13;;;;;;;;;;5102394;28;20216;-78
2023/04/02 08:22:14;;;;;;;0.90;0.90;;;;;;;;;;5092993;28;20223;-79
2023/04/02 08:24:45;;;;;;;1.50;1.10;;;;;;;;;;5111546;28;20203;-78
2023/04/02 08:27:13;;;;;;;0.80;0.80;;;;;;;;;;5111241;28;20264;-78
2023/04/02 08:29:40;;;;;;;0.80;0.80;;;;;;;;;;5100096;28;20205;-78
2023/04/02 08:32:07;;;;;;;0.93;0.93;;;;;;;;;;5091222;28;20204;-78
2023/04/02 08:34:36;;;;;;;2.30;1.00;;;;;;;;;;5091247;28;20299;-78
2023/04/02 08:37:06;;;;;;;0.67;0.67;;;;;;;;;;5091072;28;20200;-78
2023/04/02 08:39:34;;;;;;;1.40;1.20;;;;;;;;;;5103614;28;20252;-78
2023/04/02 08:42:04;;;;;;;0.83;0.83;;;;;;;;;;5097153;28;20290;-78
2023/04/02 08:44:44;;;;;;;2.10;0.93;;;;;;;;;;5098268;28;20196;-79
2023/04/02 08:47:12;;;;;;;2.67;1.70;;;;;;;;;;5098834;28;20200;-78
2023/04/02 08:49:43;;;;;;;3.87;1.90;;;;;;;;;;5110596;28;20207;-78
2023/04/02 08:52:20;;;;;;;1.60;1.07;;;;;;;;;;5110643;28;20210;-78
2023/04/02 08:54:47;;;;;;;0.93;0.93;;;;;;;;;;5097429;28;20196;-78
2023/04/02 08:57:23;;;;;;;10.93;6.43;;;;;;;;;;5111229;28;21168;-78
2023/04/02 08:59:54;;;;;;;1.93;1.53;;;;;;;;;;5091988;28;20201;-78
2023/04/02 09:02:27;;;;;;;1.50;1.10;;;;;;;;;;5103545;28;20702;-77
2023/04/02 09:04:56;;;;;;;16.67;5.00;;;;;;;;;;5091002;28;20204;-78
2023/04/02 09:07:23;;;;;;;1.23;1.03;;;;;;;;;;5090958;28;20292;-78
2023/04/02 09:09:50;;;;;;;0.87;0.87;;;;;;;;;;5090378;28;20712;-78
2023/04/02 09:12:20;;;;;;;1.37;0.63;;;;;;;;;;5090404;28;20716;-78
2023/04/02 09:14:59;;;;;;;1.17;0.90;;;;;;;;;;5090497;28;20584;-78
2023/04/02 09:17:26;;;;;;;2.47;1.27;;;;;;;;;;5107705;28;20202;-81
2023/04/02 09:19:56;;;;;;;1.57;1.47;;;;;;;;;;5110999;28;20213;-78
2023/04/02 09:22:25;;;;;;;6.30;2.27;;;;;;;;;;5097023;28;20196;-78
2023/04/02 09:24:52;;;;;;;5.40;1.47;;;;;;;;;;5099339;28;20215;-79
2023/04/02 09:27:21;;;;;;;1.97;1.50;;;;;;;;;;5090476;28;20659;-79
2023/04/02 09:29:51;;;;;;;1.30;0.80;;;;;;;;;;5094518;28;20197;-78
2023/04/02 09:32:38;;;;;;;10.50;3.13;;;;;;;;;;5113189;28;20705;-78
2023/04/02 09:35:11;;;;;;;1.77;1.00;;;;;;;;;;5095385;28;20678;-78
2023/04/02 09:37:41;;;;;;;0.63;0.63;;;;;;;;;;5094309;28;20291;-78
2023/04/02 09:40:18;;;;;;;0.97;0.97;;;;;;;;;;5107829;28;20211;-78
2023/04/02 09:42:46;;;;;;;0.80;0.80;;;;;;;;;;5105511;28;20225;-78
2023/04/02 09:45:18;;;;;;;2.07;0.80;;;;;;;;;;5109399;28;20567;-78
2023/04/02 09:47:45;;;;;;;0.70;0.70;;;;;;;;;;5107068;28;20203;-78
2023/04/02 09:50:26;;;;;;;2.13;1.03;;;;;;;;;;5094558;28;20253;-78
2023/04/02 09:52:53;;;;;;;1.40;1.00;;;;;;;;;;5094067;28;20290;-78
2023/04/02 09:55:25;;;;;;;0.67;0.67;;;;;;;;;;5094021;28;20208;-79
2023/04/02 09:58:08;;;;;;;2.10;1.27;;;;;;;;;;5107954;28;20678;-78
2023/04/02 10:00:36;;;;;;;0.80;0.80;;;;;;;;;;5093673;28;20208;-78
2023/04/02 10:03:05;;;;;;;0.60;0.60;;;;;;;;;;5108074;28;20293;-78
2023/04/02 10:05:34;;;;;;;0.50;0.50;;;;;;;;;;5105455;28;20237;-78
2023/04/02 10:08:09;;;;;;;1.43;1.07;;;;;;;;;;5100684;28;20665;-79
2023/04/02 10:10:39;;;;;;;6.83;5.13;;;;;;;;;;5100137;28;20269;-79
2023/04/02 10:13:09;;;;;;;1.07;0.87;;;;;;;;;;5101037;28;20211;-78
2023/04/02 10:15:42;;;;;;;1.23;1.00;;;;;;;;;;5100638;28;20212;-79
2023/04/02 10:18:13;;;;;;;0.67;0.67;;;;;;;;;;5105070;28;20200;-78
2023/04/02 10:20:41;;;;;;;1.77;0.93;;;;;;;;;;5097192;28;20261;-79
2023/04/02 10:23:14;;;;;;;1.17;1.17;;;;;;;;;;5103048;28;20606;-78
2023/04/02 10:25:45;;;;;;;0.90;0.90;;;;;;;;;;5097663;28;20199;-78
2023/04/02 10:28:21;;;;;;;1.03;0.90;;;;;;;;;;5101613;28;20630;-78
2023/04/02 10:30:55;;;;;;;0.87;0.87;;;;;;;;;;5093519;28;20215;-78
2023/04/02 10:33:25;;;;;;;4.77;2.97;;;;;;;;;;5106960;28;20203;-78
2023/04/02 10:35:57;;;;;;;1.17;1.17;;;;;;;;;;5092985;28;21002;-78
2023/04/02 10:38:33;;;;;;;1.83;1.73;;;;;;;;;;5106526;28;20292;-78
2023/04/02 10:41:04;;;;;;;1.07;1.07;;;;;;;;;;5092952;28;20211;-79
2023/04/02 10:43:52;;;;;;;4.70;1.10;;;;;;;;;;5106698;28;20224;-78
2023/04/02 10:46:22;;;;;;;1.50;1.40;;;;;;;;;;5106104;28;20203;-78
2023/04/02 10:48:55;;;;;;;3.37;2.70;;;;;;;;;;5093151;28;20246;-78
2023/04/02 10:51:32;;;;;;;1.83;1.73;;;;;;;;;;5106633;28;20205;-79
2023/04/02 10:54:03;;;;;;;1.43;1.30;;;;;;;;;;5093064;28;20204;-78
2023/04/02 10:56:31;;;;;;;0.77;0.77;;;;;;;;;;5092748;28;20200;-82
2023/04/02 10:59:03;;;;;;;1.23;1.13;;;;;;;;;;5092907;28;20207;-78
2023/04/02 11:01:31;;;;;;;1.20;1.10;;;;;;;;;;5099141;28;20600;-81
2023/04/02 11:04:01;;;;;;;0.80;0.73;;;;;;;;;;5099317;28;20775;-79
2023/04/02 11:06:31;;;;;;;0.60;0.60;;;;;;;;;;5105350;28;20200;-78
2023/04/02 11:09:00;;;;;;;1.87;1.30;;;;;;;;;;5107752;28;20227;-79
2023/04/02 11:11:29;;;;;;;1.53;0.70;;;;;;;;;;5104736;28;20201;-78
2023/04/02 11:14:00;;;;;;;0.87;0.67;;;;;;;;;;5092682;28;20200;-78
2023/04/02 11:16:27;;;;;;;1.20;1.20;;;;;;;;;;5101679;28;20218;-78
2023/04/02 11:19:25;;;;;;;0.80;0.80;;;;;;;;;;5098495;28;20211;-78
2023/04/02 11:21:54;;;;;;;1.27;0.90;;;;;;;;;;5112493;28;20208;-78
2023/04/02 11:24:39;;;;;;;0.77;0.77;;;;;;;;;;5092248;28;20310;-79
2023/04/02 11:27:18;;;;;;;1.70;1.17;;;;;;;;;;5107873;28;20199;-79
2023/04/02 11:29:47;;;;;;;2.20;1.87;;;;;;;;;;5100847;28;20719;-78
2023/04/02 11:32:39;;;;;;;1.60;1.23;;;;;;;;;;5092014;28;20200;-78
2023/04/02 11:35:32;;;;;;;0.53;0.53;;;;;;;;;;5103432;28;20570;-78
2023/04/02 11:38:02;;;;;;;0.60;0.60;;;;;;;;;;5092560;28;20213;-78
2023/04/02 11:41:02;;;;;;;2.03;1.23;;;;;;;;;;5105533;28;20682;-78
2023/04/02 11:43:48;;;;;;;0.97;0.67;;;;;;;;;;5104420;28;20706;-78
2023/04/02 11:46:45;;;;;;;0.60;0.60;;;;;;;;;;5091599;28;20250;-79
2023/04/02 11:49:33;;;;;;;1.80;1.30;;;;;;;;;;5101000;28;20232;-79
2023/04/02 11:52:00;;;;;;;3.63;3.07;;;;;;;;;;5092208;28;20648;-78
2023/04/02 11:54:29;;;;;;;1.00;1.00;;;;;;;;;;5097932;28;20232;-79
2023/04/02 11:57:00;;;;;;;0.70;0.70;;;;;;;;;;5099841;28;20591;-78
2023/04/02 11:59:33;;;;;;;2.63;2.20;;;;;;;;;;5096962;28;20208;-78
2023/04/02 12:02:08;;;;;;;1.80;1.43;;;;;;;;;;5091488;28;20215;-79
2023/04/02 12:05:15;;;;;;;1.20;1.10;;;;;;;;;;5091827;28;20288;-79
2023/04/02 12:08:12;;;;;;;0.63;0.63;;;;;;;;;;5080214;28;20601;-78
2023/04/02 12:11:00;;;;;;;0.80;0.80;;;;;;;;;;5063311;28;20732;-78
2023/04/02 12:13:57;;;;;;;0.60;0.60;;;;;;;;;;5058330;28;20258;-78
2023/04/02 12:16:28;;;;;;;1.63;1.53;;;;;;;;;;5051029;28;20681;-78
2023/04/02 12:18:56;;;;;;;1.43;1.07;;;;;;;;;;5066008;28;20208;-81
2023/04/02 12:21:25;;;;;;;1.00;1.00;;;;;;;;;;5061238;28;20210;-80
2023/04/02 12:23:55;;;;;;;1.87;1.13;;;;;;;;;;5051152;28;20245;-80
2023/04/02 12:26:36;;;;;;;1.23;0.90;;;;;;;;;;5060463;28;20212;-81
2023/04/02 12:29:30;;;;;;;0.50;0.50;;;;;;;;;;5057833;28;20284;-81
2023/04/02 12:31:58;;;;;;;0.90;0.90;;;;;;;;;;5032263;28;20200;-80
2023/04/02 12:34:28;;;;;;;0.70;0.60;;;;;;;;;;5051098;28;20213;-81
2023/04/02 12:37:01;;;;;;;0.83;0.83;;;;;;;;;;5054608;28;20215;-81
2023/04/02 12:39:29;;;;;;;0.70;0.70;;;;;;;;;;5070517;28;20213;-81
2023/04/02 12:41:57;;;;;;;1.30;0.90;;;;;;;;;;5065592;28;20264;-80
2023/04/02 12:44:26;;;;;;;0.50;0.50;;;;;;;;;;5062350;28;20239;-78
2023/04/02 12:46:53;;;;;;;0.73;0.73;;;;;;;;;;5064446;28;20255;-78
2023/04/02 12:49:25;;;;;;;1.53;1.20;;;;;;;;;;5050834;28;20213;-78
2023/04/02 12:51:55;;;;;;;1.70;1.60;;;;;;;;;;5057372;28;20212;-78
2023/04/02 12:54:24;;;;;;;1.13;0.80;;;;;;;;;;5057060;28;20269;-78
2023/04/02 12:56:51;;;;;;;0.80;0.80;;;;;;;;;;5070688;28;20250;-78
2023/04/02 12:59:38;;;;;;;4.57;1.30;;;;;;;;;;5056677;28;20206;-78
2023/04/02 13:02:17;;;;;;;0.60;0.60;;;;;;;;;;5070543;28;20208;-78
2023/04/02 13:04:48;;;;;;;1.17;1.03;;;;;;;;;;5073971;28;20220;-78
2023/04/02 13:07:21;;;;;;;0.80;0.80;;;;;;;;;;5061334;28;20229;-78
2023/04/02 13:09:49;;;;;;;0.60;0.60;;;;;;;;;;5092769;28;20296;-78
2023/04/02 13:12:27;;;;;;;0.50;0.50;;;;;;;;;;5113991;28;20207;-78
2023/04/02 13:14:55;;;;;;;0.70;0.70;;;;;;;;;;5095118;28;20261;-78
2023/04/02 13:17:38;;;;;;;2.17;1.27;;;;;;;;;;5097017;28;20204;-79
2023/04/02 13:20:31;;;;;;;0.80;0.80;;;;;;;;;;5103745;28;20208;-79
2023/04/02 13:23:01;;;;;;;0.90;0.90;;;;;;;;;;5103750;28;20213;-78
2023/04/02 13:25:30;;;;;;;1.30;1.20;;;;;;;;;;5111685;28;20286;-77
2023/04/02 13:27:59;;;;;;;1.97;1.63;;;;;;;;;;5104820;28;20206;-78
2023/04/02 13:30:27;;;;;;;0.70;0.70;;;;;;;;;;5110811;28;20529;-79
2023/04/02 13:32:55;;;;;;;0.97;0.60;;;;;;;;;;5104708;28;20723;-77
2023/04/02 13:35:22;;;;;;;0.73;0.73;;;;;;;;;;5100616;28;20629;-78
2023/04/02 13:37:48;;;;;;;2.30;2.10;;;;;;;;;;5114752;28;20257;-78
2023/04/02 13:40:18;;;;;;;1.30;1.20;;;;;;;;;;5110472;28;20285;-78
2023/04/02 13:42:45;;;;;;;0.87;0.87;;;;;;;;;;5093971;28;20287;-78
2023/04/02 13:45:22;;;;;;;0.43;0.43;;;;;;;;;;5107409;28;20231;-78
2023/04/02 13:47:48;;;;;;;0.30;0.30;;;;;;;;;;5107044;28;20765;-77
2023/04/02 13:50:17;;;;;;;1.03;1.00;;;;;;;;;;5100110;28;20199;-79
2023/04/02 13:52:44;;;;;;;5.83;4.00;;;;;;;;;;5101039;28;20219;-77
2023/04/02 13:55:11;;;;;;;4.43;3.33;;;;;;;;;;5094420;28;20200;-79
2023/04/02 13:57:39;;;;;;;1.60;1.27;;;;;;;;;;5093565;28;20211;-79
2023/04/02 14:00:07;;;;;;;1.03;1.03;;;;;;;;;;5094384;28;20215;-78
2023/04/02 14:02:34;;;;;;;1.10;1.10;;;;;;;;;;5107938;28;20261;-78
2023/04/02 14:05:07;;;;;;;0.70;0.70;;;;;;;;;;5114084;28;20599;-78
2023/04/02 14:07:43;;;;;;;0.93;0.80;;;;;;;;;;5113352;28;20207;-78
2023/04/02 14:10:20;;;;;;;4.00;3.50;;;;;;;;;;5103784;28;20597;-80
2023/04/02 14:13:01;;;;;;;5.20;3.80;;;;;;;;;;5098722;28;20199;-78
2023/04/02 14:15:39;;;;;;;1.90;1.70;;;;;;;;;;5112752;28;20230;-78
2023/04/02 14:18:35;;;;;;;2.90;2.67;;;;;;;;;;5102585;28;20231;-78
2023/04/02 14:21:08;;;;;;;1.87;1.70;;;;;;;;;;5107356;28;20635;-77
2023/04/02 14:23:48;;;;;;;3.23;2.93;;;;;;;;;;5093384;28;20205;-78
2023/04/02 14:26:21;;;;;;;3.30;3.00;;;;;;;;;;5093082;28;20670;-78
2023/04/02 14:28:56;;;;;;;2.40;1.77;;;;;;;;;;5096436;28;20192;-78
2023/04/02 14:31:30;;;;;;;2.17;1.97;;;;;;;;;;5102371;28;20203;-78
2023/04/02 14:34:02;;;;;;;1.50;1.40;;;;;;;;;;5093591;28;20581;-78
2023/04/02 14:36:37;;;;;;;2.27;2.17;;;;;;;;;;5106209;28;20203;-78
2023/04/02 14:39:10;;;;;;;2.53;1.90;;;;;;;;;;5113257;28;20568;-78
2023/04/02 14:41:40;;;;;;;1.63;1.20;;;;;;;;;;5113035;28;20203;-77
2023/04/02 14:44:12;;;;;;;2.20;2.10;;;;;;;;;;5113197;28;20249;-78
2023/04/02 14:46:39;;;;;;;4.63;2.50;;;;;;;;;;5113308;28;20596;-78
2023/04/02 14:49:16;;;;;;;1.87;0.80;;;;;;;;;;5103603;28;20196;-78
2023/04/02 14:51:46;;;;;;;1.20;1.10;;;;;;;;;;5110434;28;20199;-78
2023/04/02 14:54:17;;;;;;;1.17;1.00;;;;;;;;;;5113381;28;20214;-79
2023/04/02 14:56:45;;;;;;;1.00;1.00;;;;;;;;;;5112677;28;20199;-78
2023/04/02 14:59:29;;;;;;;1.70;1.60;;;;;;;;;;5113129;28;20208;-78
2023/04/02 15:02:00;;;;;;;2.50;2.30;;;;;;;;;;5097792;28;20218;-78
2023/04/02 15:04:31;;;;;;;1.97;1.87;;;;;;;;;;5096190;28;20285;-78
2023/04/02 15:07:03;;;;;;;3.27;2.97;;;;;;;;;;5092259;28;20200;-78
2023/04/02 15:09:33;;;;;;;1.30;1.20;;;;;;;;;;5106196;28;20721;-78